Kezdőlap
METAR-TAF:

METAR-TAF

Repülőterek :

Nantucket, Massachusetts, Amerikai Egyesült Államok

földrajzi szélesség: 41-15-14N, földrajzi hosszúság: 070-03-35W, magasság: 14 m

Jelenlegi meteorológiai megfigyelések

A jelentés 20 perccel ezelõtt készült, 17:53 UTC
Délnyugati szél 10 kt
Hőmérséklet 8°C
Páratartalom 71%
Légköri nyomás 1021 hPa
Látótávolság: 16.1 km
Derült ég

METAR: KACK 231753Z 22010KT 10SM CLR 08/03 A3014 RMK AO2 SLP208 T00780033 10089 20011 58017

Idő: 13:13 (18:13 UTC)

Előrejelzés

A jelentés 34 perccel ezelõtt készült, 17:39 UTC
Az előrejelzés 23-én 18 óra UTC és 24-én 18 óra UTC között érvényes
Délnyugati szél 11 kt
Látótávolság: 10 km
Derült ég
24-én 0000 órától UTC szerint
Délnyugati szél 7 kt
Látótávolság: 10 km
Derült ég
24-én 1200 órától UTC szerint
Dél-délnyugati szél 9 kt
Látótávolság: 10 km
Derült ég

TAF: KACK 231739Z 2318/2418 23011KT P6SM SKC FM240000 22007KT P6SM SKC FM241200 20009KT P6SM SKC

Meteorológiai megfigyelések és előrejelzések több, mint 4000 repülőtéren (METAR és TAF jelentéseket).

A térképen piros és sárga pontok jelzik az elérhető meteorológiai állomásokat.

Mozgassa az egeret a pont fölött, hogy megjelenjen az állomás neve.

Azután kattintson az időjárási megfigyelések és előrejelzések megtekintéséhez.

A térkép megváltoztatása: kattintson a fekete keresztel jelölt zöld gombra ráközelítéshez, a vonallal jelölt zöld gombra távolításhoz, vagy a zöld nyilakra a szomszédos térképek eléréséhez.


METAR-TAF: